Time;durP1;ratioP1;P1;durP2;ratioP2;P2;SDS_P1;SDS_P2;PMS_P1;PMS_P2;Temp;Humidity;BMP_temperature;BMP_pressure;BME280_temperature;BME280_humidity;BME280_pressure;Samples;Min_cycle;Max_cycle;Signal;HPM_P1;HPM_P2
2020/12/05 00:01:53;;;;;;;31.23;19.02;;;;;;;;;;5071568;28;20092;-66
2020/12/05 00:04:19;;;;;;;30.55;19.23;;;;;;;;;;5072478;28;20017;-66
2020/12/05 00:06:46;;;;;;;33.65;20.67;;;;;;;;;;5072396;28;20027;-65
2020/12/05 00:09:12;;;;;;;28.00;17.38;;;;;;;;;;5075629;28;20052;-69
2020/12/05 00:11:38;;;;;;;35.00;19.85;;;;;;;;;;5074747;28;20074;-70
2020/12/05 00:14:04;;;;;;;31.50;20.35;;;;;;;;;;5085671;28;20024;-68
2020/12/05 00:16:30;;;;;;;29.15;18.90;;;;;;;;;;5095573;28;20097;-65
2020/12/05 00:18:57;;;;;;;30.58;19.30;;;;;;;;;;5095789;28;20468;-66
2020/12/05 00:21:23;;;;;;;49.08;26.13;;;;;;;;;;5095470;28;20093;-65
2020/12/05 00:23:50;;;;;;;29.67;18.33;;;;;;;;;;5095633;28;20115;-65
2020/12/05 00:26:16;;;;;;;36.33;21.40;;;;;;;;;;5095667;28;20032;-68
2020/12/05 00:28:42;;;;;;;38.70;22.67;;;;;;;;;;5095886;28;20024;-67
2020/12/05 00:31:09;;;;;;;44.15;25.00;;;;;;;;;;5094943;28;20744;-67
2020/12/05 00:33:35;;;;;;;49.70;26.65;;;;;;;;;;5095317;28;20092;-66
2020/12/05 00:36:02;;;;;;;40.10;23.92;;;;;;;;;;5095857;28;20017;-68
2020/12/05 00:38:28;;;;;;;34.42;20.48;;;;;;;;;;5095222;28;20091;-65
2020/12/05 00:40:55;;;;;;;29.73;17.08;;;;;;;;;;5095105;28;20031;-65
2020/12/05 00:43:21;;;;;;;32.78;20.17;;;;;;;;;;5095415;28;20046;-66
2020/12/05 00:45:47;;;;;;;38.72;22.23;;;;;;;;;;5094744;28;20031;-65
2020/12/05 00:48:13;;;;;;;43.28;24.38;;;;;;;;;;5093857;28;20031;-65
2020/12/05 00:50:39;;;;;;;44.35;27.10;;;;;;;;;;5095193;28;20027;-67
2020/12/05 00:53:05;;;;;;;55.13;27.33;;;;;;;;;;5094592;28;20464;-66
2020/12/05 00:55:31;;;;;;;45.95;24.35;;;;;;;;;;5095148;28;20028;-68
2020/12/05 00:57:57;;;;;;;33.38;20.35;;;;;;;;;;5094183;28;20047;-67
2020/12/05 01:00:24;;;;;;;32.83;19.52;;;;;;;;;;5093511;28;20181;-68
2020/12/05 01:02:50;;;;;;;33.58;19.88;;;;;;;;;;5094732;28;20095;-66
2020/12/05 01:05:16;;;;;;;39.92;23.85;;;;;;;;;;5093876;28;20024;-66
2020/12/05 01:07:42;;;;;;;35.95;20.70;;;;;;;;;;5094370;28;20576;-66
2020/12/05 01:10:09;;;;;;;33.53;20.50;;;;;;;;;;5094949;28;20469;-70
2020/12/05 01:12:35;;;;;;;29.88;18.48;;;;;;;;;;5094899;28;20099;-69
2020/12/05 01:15:01;;;;;;;38.28;22.50;;;;;;;;;;5093692;28;20502;-67
2020/12/05 01:17:32;;;;;;;32.50;19.35;;;;;;;;;;5093741;28;20023;-66
2020/12/05 01:19:58;;;;;;;34.15;20.85;;;;;;;;;;5093864;28;20356;-66
2020/12/05 01:22:25;;;;;;;30.92;19.33;;;;;;;;;;5094051;28;20048;-67
2020/12/05 01:24:51;;;;;;;28.45;17.67;;;;;;;;;;5094881;28;20394;-66
2020/12/05 01:27:18;;;;;;;36.47;21.80;;;;;;;;;;5095111;28;20036;-66
2020/12/05 01:29:44;;;;;;;27.98;17.45;;;;;;;;;;5093780;28;20012;-65
2020/12/05 01:32:10;;;;;;;28.23;17.58;;;;;;;;;;5094450;28;20519;-65
2020/12/05 01:34:37;;;;;;;33.25;18.70;;;;;;;;;;5094731;28;20563;-64
2020/12/05 01:37:03;;;;;;;51.88;29.10;;;;;;;;;;5093657;28;20027;-65
2020/12/05 01:39:29;;;;;;;34.13;18.85;;;;;;;;;;5093348;28;20020;-66
2020/12/05 01:41:55;;;;;;;32.55;17.88;;;;;;;;;;5094580;28;20019;-67
2020/12/05 01:44:21;;;;;;;38.38;22.13;;;;;;;;;;5089582;28;20401;-66
2020/12/05 01:46:48;;;;;;;43.28;23.63;;;;;;;;;;5093404;28;20047;-66
2020/12/05 01:49:18;;;;;;;44.13;24.48;;;;;;;;;;5094042;28;20069;-66
2020/12/05 01:51:45;;;;;;;32.90;19.63;;;;;;;;;;5091966;28;20048;-66
2020/12/05 01:54:12;;;;;;;38.05;22.00;;;;;;;;;;5093058;28;20039;-64
2020/12/05 01:56:38;;;;;;;30.15;17.58;;;;;;;;;;5094070;28;20476;-65
2020/12/05 01:59:04;;;;;;;42.60;24.50;;;;;;;;;;5092804;28;20102;-67
2020/12/05 02:01:31;;;;;;;32.42;18.23;;;;;;;;;;5094211;28;20064;-65
2020/12/05 02:03:57;;;;;;;38.28;22.63;;;;;;;;;;5093641;28;20016;-66
2020/12/05 02:06:28;;;;;;;37.38;20.88;;;;;;;;;;5092856;28;20094;-68
2020/12/05 02:09:06;;;;;;;43.10;24.40;;;;;;;;;;5093711;28;20051;-65
2020/12/05 02:11:35;;;;;;;32.80;19.00;;;;;;;;;;5093728;28;20054;-65
2020/12/05 02:14:03;;;;;;;33.10;20.98;;;;;;;;;;5092509;28;20024;-67
2020/12/05 02:16:29;;;;;;;41.58;22.15;;;;;;;;;;5078105;28;20028;-65
2020/12/05 02:18:56;;;;;;;35.08;20.95;;;;;;;;;;5073297;28;20059;-65
2020/12/05 02:21:25;;;;;;;30.67;17.80;;;;;;;;;;5072192;28;20806;-66
2020/12/05 02:23:52;;;;;;;35.13;19.92;;;;;;;;;;5073645;28;20020;-68
2020/12/05 02:26:19;;;;;;;34.40;21.07;;;;;;;;;;5073209;28;20021;-65
2020/12/05 02:28:45;;;;;;;36.97;22.85;;;;;;;;;;5072321;28;20020;-68
2020/12/05 02:31:11;;;;;;;32.03;18.15;;;;;;;;;;5073103;28;20025;-64
2020/12/05 02:33:38;;;;;;;33.40;19.35;;;;;;;;;;5072793;28;20021;-67
2020/12/05 02:36:05;;;;;;;32.70;19.80;;;;;;;;;;5072157;28;20395;-67
2020/12/05 02:38:44;;;;;;;37.50;22.38;;;;;;;;;;5073647;28;20100;-66
2020/12/05 02:41:10;;;;;;;33.75;20.20;;;;;;;;;;5073119;28;20093;-68
2020/12/05 02:43:37;;;;;;;29.40;20.10;;;;;;;;;;5072197;28;20020;-68
2020/12/05 02:46:03;;;;;;;27.88;17.60;;;;;;;;;;5072492;28;20376;-66
2020/12/05 02:48:29;;;;;;;32.53;20.13;;;;;;;;;;5073349;28;20025;-65
2020/12/05 02:50:55;;;;;;;36.42;20.83;;;;;;;;;;5072088;28;20012;-65
2020/12/05 02:53:21;;;;;;;33.65;19.67;;;;;;;;;;5072906;28;20024;-67
2020/12/05 02:55:48;;;;;;;36.92;21.20;;;;;;;;;;5073113;28;20024;-65
2020/12/05 02:58:14;;;;;;;34.75;20.35;;;;;;;;;;5072194;28;20025;-65
2020/12/05 03:00:40;;;;;;;37.53;21.67;;;;;;;;;;5072800;28;20400;-67
2020/12/05 03:03:06;;;;;;;34.95;19.50;;;;;;;;;;5072736;28;20369;-65
2020/12/05 03:05:32;;;;;;;31.45;18.17;;;;;;;;;;5072209;28;20453;-66
2020/12/05 03:07:58;;;;;;;37.28;19.63;;;;;;;;;;5072634;28;20104;-67
2020/12/05 03:10:25;;;;;;;29.88;18.35;;;;;;;;;;5072927;28;20523;-65
2020/12/05 03:12:51;;;;;;;30.33;18.92;;;;;;;;;;5073418;28;20024;-65
2020/12/05 03:15:17;;;;;;;31.88;18.77;;;;;;;;;;5092733;28;20020;-68
2020/12/05 03:17:43;;;;;;;35.38;20.52;;;;;;;;;;5093107;28;20024;-68
2020/12/05 03:20:09;;;;;;;30.20;17.48;;;;;;;;;;5092485;28;20042;-67
2020/12/05 03:22:35;;;;;;;35.63;20.60;;;;;;;;;;5093838;28;20044;-69
2020/12/05 03:25:01;;;;;;;36.10;19.98;;;;;;;;;;5093723;28;20026;-65
2020/12/05 03:27:28;;;;;;;27.70;17.40;;;;;;;;;;5093792;28;20016;-67
2020/12/05 03:29:54;;;;;;;33.60;18.42;;;;;;;;;;5093434;28;20441;-67
2020/12/05 03:32:24;;;;;;;33.40;19.23;;;;;;;;;;5093785;28;20094;-66
2020/12/05 03:34:50;;;;;;;31.02;18.63;;;;;;;;;;5093915;28;20012;-66
2020/12/05 03:37:16;;;;;;;30.38;18.73;;;;;;;;;;5093874;28;20082;-67
2020/12/05 03:39:43;;;;;;;39.28;19.65;;;;;;;;;;5092410;28;20020;-66
2020/12/05 03:42:09;;;;;;;29.55;18.45;;;;;;;;;;5093066;28;20107;-67
2020/12/05 03:44:35;;;;;;;34.85;19.42;;;;;;;;;;5096364;28;20020;-67
2020/12/05 03:47:01;;;;;;;33.33;18.27;;;;;;;;;;5095919;28;20049;-67
2020/12/05 03:49:31;;;;;;;27.08;16.88;;;;;;;;;;5096963;28;20472;-66
2020/12/05 03:51:58;;;;;;;27.95;17.45;;;;;;;;;;5097593;28;20020;-66
2020/12/05 03:54:24;;;;;;;30.33;18.42;;;;;;;;;;5097802;28;20412;-66
2020/12/05 03:56:50;;;;;;;32.92;19.65;;;;;;;;;;5096834;28;20021;-66
2020/12/05 03:59:16;;;;;;;30.27;17.88;;;;;;;;;;5097672;28;20043;-65
2020/12/05 04:01:42;;;;;;;32.33;18.90;;;;;;;;;;5097319;28;20091;-64
2020/12/05 04:04:09;;;;;;;34.63;19.15;;;;;;;;;;5095709;28;20504;-62
2020/12/05 04:06:35;;;;;;;35.47;19.35;;;;;;;;;;5097173;28;20107;-65
2020/12/05 04:09:01;;;;;;;31.35;17.15;;;;;;;;;;5096909;28;20055;-63
2020/12/05 04:11:27;;;;;;;32.45;19.40;;;;;;;;;;5095556;28;20027;-63
2020/12/05 04:13:53;;;;;;;26.65;16.90;;;;;;;;;;5097372;28;20039;-64
2020/12/05 04:16:19;;;;;;;33.08;18.13;;;;;;;;;;5097045;28;20020;-63
2020/12/05 04:18:45;;;;;;;29.38;16.83;;;;;;;;;;5096673;28;20028;-65
2020/12/05 04:21:11;;;;;;;30.10;18.77;;;;;;;;;;5096801;28;20480;-67
2020/12/05 04:23:38;;;;;;;30.17;16.50;;;;;;;;;;5096995;28;20012;-67
2020/12/05 04:26:04;;;;;;;28.55;15.75;;;;;;;;;;5096609;28;20027;-64
2020/12/05 04:28:30;;;;;;;26.20;15.82;;;;;;;;;;5096583;28;20016;-65
2020/12/05 04:30:56;;;;;;;28.58;17.33;;;;;;;;;;5096458;28;20020;-67
2020/12/05 04:33:22;;;;;;;26.40;16.27;;;;;;;;;;5096406;28;20345;-65
2020/12/05 04:35:49;;;;;;;26.90;16.35;;;;;;;;;;5096634;28;20031;-64
2020/12/05 04:38:15;;;;;;;30.63;17.63;;;;;;;;;;5095102;28;20407;-66
2020/12/05 04:40:41;;;;;;;27.15;18.00;;;;;;;;;;5096763;28;20020;-64
2020/12/05 04:43:08;;;;;;;27.55;17.80;;;;;;;;;;5096247;28;20019;-64
2020/12/05 04:45:35;;;;;;;28.73;18.13;;;;;;;;;;5094839;28;20399;-65
2020/12/05 04:48:02;;;;;;;31.00;17.83;;;;;;;;;;5095169;28;20035;-65
2020/12/05 04:50:29;;;;;;;26.63;16.65;;;;;;;;;;5096693;28;20016;-68
2020/12/05 04:52:58;;;;;;;25.65;16.40;;;;;;;;;;5095755;28;20020;-66
2020/12/05 04:55:27;;;;;;;29.00;17.70;;;;;;;;;;5096587;28;20028;-67
2020/12/05 04:57:57;;;;;;;24.63;16.20;;;;;;;;;;5096254;28;20504;-66
2020/12/05 05:00:23;;;;;;;25.00;14.63;;;;;;;;;;5096036;28;20464;-67
2020/12/05 05:02:49;;;;;;;27.55;17.98;;;;;;;;;;5094829;28;20059;-66
2020/12/05 05:05:15;;;;;;;30.52;18.38;;;;;;;;;;5096294;28;20043;-65
2020/12/05 05:07:48;;;;;;;34.13;16.85;;;;;;;;;;5095733;28;20027;-66
2020/12/05 05:10:17;;;;;;;33.90;19.40;;;;;;;;;;5096303;28;20517;-66
2020/12/05 05:12:44;;;;;;;29.50;17.15;;;;;;;;;;5095665;28;20016;-65
2020/12/05 05:15:27;;;;;;;35.00;18.20;;;;;;;;;;5095628;28;20380;-66
2020/12/05 05:17:54;;;;;;;32.03;19.55;;;;;;;;;;5095170;28;20352;-65
2020/12/05 05:20:21;;;;;;;33.13;21.15;;;;;;;;;;5095739;28;20019;-64
2020/12/05 05:22:49;;;;;;;31.60;18.05;;;;;;;;;;5094082;28;20051;-66
2020/12/05 05:25:15;;;;;;;33.03;21.23;;;;;;;;;;5095725;28;20016;-67
2020/12/05 05:27:41;;;;;;;30.45;19.08;;;;;;;;;;5095338;28;20027;-66
2020/12/05 05:30:13;;;;;;;30.75;18.45;;;;;;;;;;5094910;28;20356;-66
2020/12/05 05:32:48;;;;;;;41.65;26.55;;;;;;;;;;5094357;28;20119;-65
2020/12/05 05:35:15;;;;;;;32.33;20.15;;;;;;;;;;5095365;28;20073;-67
2020/12/05 05:37:41;;;;;;;;;;;;;;;;;;5095884;28;20020;-67
2020/12/05 05:40:09;;;;;;;33.63;19.23;;;;;;;;;;5095463;28;20264;-68
2020/12/05 05:42:37;;;;;;;35.17;20.63;;;;;;;;;;5095083;28;20097;-69
2020/12/05 05:45:03;;;;;;;;;;;;;;;;;;5095709;28;20026;-66
2020/12/05 05:47:29;;;;;;;97.97;69.10;;;;;;;;;;5095420;28;19904;-67
2020/12/05 05:49:55;;;;;;;85.75;63.63;;;;;;;;;;5095231;28;20027;-65
2020/12/05 05:52:22;;;;;;;43.13;35.47;;;;;;;;;;5094269;28;20020;-68
2020/12/05 05:54:54;;;;;;;68.10;39.22;;;;;;;;;;5095113;28;20346;-67
2020/12/05 05:57:20;;;;;;;47.67;29.70;;;;;;;;;;5095182;28;20020;-68
2020/12/05 05:59:46;;;;;;;109.00;73.28;;;;;;;;;;5095091;28;20364;-67
2020/12/05 06:02:14;;;;;;;39.10;26.50;;;;;;;;;;5094700;28;20020;-65
2020/12/05 06:04:41;;;;;;;31.90;21.10;;;;;;;;;;5094077;28;20345;-67
2020/12/05 06:07:08;;;;;;;34.47;21.48;;;;;;;;;;5094898;28;20039;-65
2020/12/05 06:09:45;;;;;;;37.28;20.83;;;;;;;;;;5093885;28;20020;-67
2020/12/05 06:12:12;;;;;;;33.70;22.08;;;;;;;;;;5093601;28;20095;-67
2020/12/05 06:14:40;;;;;;;29.85;17.83;;;;;;;;;;5094837;28;20494;-67
2020/12/05 06:17:08;;;;;;;34.25;22.42;;;;;;;;;;5094589;28;20095;-67
2020/12/05 06:19:34;;;;;;;50.13;33.88;;;;;;;;;;5093476;28;20405;-68
2020/12/05 06:22:00;;;;;;;215.77;101.75;;;;;;;;;;5093167;28;20427;-69
2020/12/05 06:24:34;;;;;;;87.47;63.22;;;;;;;;;;5093164;28;20016;-67
2020/12/05 06:27:01;;;;;;;60.42;44.22;;;;;;;;;;5093851;28;20351;-73
2020/12/05 06:29:28;;;;;;;70.15;55.78;;;;;;;;;;5094536;28;20024;-70
2020/12/05 06:31:54;;;;;;;40.50;29.92;;;;;;;;;;5094456;28;20068;-72
2020/12/05 06:34:47;;;;;;;39.22;26.00;;;;;;;;;;5093229;28;20109;-71
2020/12/05 06:37:32;;;;;;;31.80;20.70;;;;;;;;;;5090982;28;20032;-66
2020/12/05 06:40:03;;;;;;;33.60;20.63;;;;;;;;;;5094469;28;20051;-65
2020/12/05 06:42:37;;;;;;;50.03;34.65;;;;;;;;;;5094560;28;20013;-65
2020/12/05 06:45:04;;;;;;;68.18;52.72;;;;;;;;;;5093987;28;20023;-65
2020/12/05 06:47:30;;;;;;;42.03;32.20;;;;;;;;;;5094265;28;20056;-69
2020/12/05 06:49:56;;;;;;;37.80;26.65;;;;;;;;;;5094182;28;20020;-64
2020/12/05 06:52:22;;;;;;;38.83;23.25;;;;;;;;;;5093879;28;20022;-67
2020/12/05 06:54:49;;;;;;;41.85;25.48;;;;;;;;;;5094422;28;20464;-66
2020/12/05 06:57:15;;;;;;;51.92;29.63;;;;;;;;;;5093848;28;20372;-68
2020/12/05 06:59:42;;;;;;;27.75;17.60;;;;;;;;;;5093823;28;20028;-66
2020/12/05 07:02:26;;;;;;;39.67;24.00;;;;;;;;;;5094344;28;20016;-69
2020/12/05 07:04:52;;;;;;;47.45;28.67;;;;;;;;;;5093689;28;20028;-68
2020/12/05 07:07:31;;;;;;;44.08;26.10;;;;;;;;;;5092634;28;20024;-67
2020/12/05 07:09:57;;;;;;;55.15;30.52;;;;;;;;;;5094268;28;20024;-68
2020/12/05 07:12:24;;;;;;;54.93;29.67;;;;;;;;;;5093569;28;20052;-69
2020/12/05 07:14:50;;;;;;;68.43;38.75;;;;;;;;;;5093077;28;20771;-69
2020/12/05 07:17:22;;;;;;;54.55;31.63;;;;;;;;;;5096965;28;20099;-66
2020/12/05 07:19:50;;;;;;;54.92;33.90;;;;;;;;;;5097560;28;20023;-65
2020/12/05 07:22:16;;;;;;;55.83;37.50;;;;;;;;;;5098205;28;20105;-66
2020/12/05 07:24:44;;;;;;;50.75;32.75;;;;;;;;;;5097774;28;20084;-65
2020/12/05 07:27:10;;;;;;;34.33;23.35;;;;;;;;;;5097337;28;20346;-64
2020/12/05 07:29:37;;;;;;;36.13;24.00;;;;;;;;;;5097673;28;20020;-67
2020/12/05 07:32:06;;;;;;;76.47;41.65;;;;;;;;;;5097224;28;20012;-64
2020/12/05 07:34:32;;;;;;;73.57;37.90;;;;;;;;;;5097540;28;20458;-64
2020/12/05 07:36:58;;;;;;;50.90;28.75;;;;;;;;;;5096624;28;20024;-64
2020/12/05 07:39:24;;;;;;;56.72;32.65;;;;;;;;;;5097807;28;20020;-65
2020/12/05 07:41:51;;;;;;;50.25;30.40;;;;;;;;;;5097486;28;20024;-64
2020/12/05 07:44:19;;;;;;;45.45;26.63;;;;;;;;;;5097487;28;20543;-67
2020/12/05 07:46:45;;;;;;;61.65;33.72;;;;;;;;;;5096008;28;20036;-66
2020/12/05 07:49:12;;;;;;;49.53;28.48;;;;;;;;;;5097322;28;20530;-63
2020/12/05 07:51:39;;;;;;;44.83;25.70;;;;;;;;;;5097309;28;20024;-66
2020/12/05 07:54:10;;;;;;;36.95;22.10;;;;;;;;;;5096263;28;20034;-66
2020/12/05 07:56:36;;;;;;;38.00;22.25;;;;;;;;;;5097524;28;20101;-65
2020/12/05 07:59:03;;;;;;;80.88;37.65;;;;;;;;;;5097121;28;20103;-63
2020/12/05 08:01:29;;;;;;;49.83;26.52;;;;;;;;;;5097411;28;20024;-63
2020/12/05 08:04:06;;;;;;;85.18;36.67;;;;;;;;;;5096583;28;20031;-65
2020/12/05 08:06:41;;;;;;;47.33;25.85;;;;;;;;;;5096688;28;20452;-65
2020/12/05 08:09:07;;;;;;;36.72;18.60;;;;;;;;;;5097246;28;20056;-65
2020/12/05 08:11:42;;;;;;;50.60;24.35;;;;;;;;;;5097269;28;20052;-63
2020/12/05 08:14:11;;;;;;;41.65;20.65;;;;;;;;;;5095878;28;20016;-64
2020/12/05 08:16:38;;;;;;;40.35;21.63;;;;;;;;;;5097119;28;20449;-65
2020/12/05 08:19:04;;;;;;;100.05;50.50;;;;;;;;;;5097014;28;20039;-63
2020/12/05 08:21:31;;;;;;;47.95;28.05;;;;;;;;;;5097049;28;20039;-65
2020/12/05 08:24:07;;;;;;;54.47;29.20;;;;;;;;;;5097222;28;20021;-66
2020/12/05 08:26:33;;;;;;;38.17;23.88;;;;;;;;;;5096711;28;20054;-64
2020/12/05 08:29:00;;;;;;;71.83;40.03;;;;;;;;;;5095348;28;20028;-65
2020/12/05 08:31:27;;;;;;;48.20;28.38;;;;;;;;;;5097024;28;20039;-65
2020/12/05 08:33:53;;;;;;;31.95;21.45;;;;;;;;;;5096579;28;20027;-64
2020/12/05 08:36:22;;;;;;;34.72;22.60;;;;;;;;;;5096714;28;20012;-63
2020/12/05 08:38:48;;;;;;;23.38;16.35;;;;;;;;;;5097263;28;20020;-65
2020/12/05 08:41:14;;;;;;;26.77;17.95;;;;;;;;;;5095278;28;20016;-69
2020/12/05 08:43:41;;;;;;;22.77;16.00;;;;;;;;;;5096968;28;20484;-64
2020/12/05 08:46:17;;;;;;;24.08;16.58;;;;;;;;;;5096529;28;20120;-64
2020/12/05 08:48:43;;;;;;;21.48;14.15;;;;;;;;;;5096561;28;20024;-65
2020/12/05 08:51:09;;;;;;;20.17;13.90;;;;;;;;;;5096463;28;20091;-64
2020/12/05 08:53:35;;;;;;;20.35;13.48;;;;;;;;;;5096040;28;20531;-64
2020/12/05 08:56:02;;;;;;;21.77;13.65;;;;;;;;;;5096625;28;20461;-66
2020/12/05 08:58:42;;;;;;;19.67;12.82;;;;;;;;;;5095026;28;20123;-66
2020/12/05 09:01:08;;;;;;;20.35;14.52;;;;;;;;;;5096371;28;20104;-66
2020/12/05 09:03:37;;;;;;;23.70;14.00;;;;;;;;;;5096355;28;20024;-64
2020/12/05 09:06:03;;;;;;;24.98;15.57;;;;;;;;;;5095793;28;20016;-65
2020/12/05 09:08:29;;;;;;;22.13;15.52;;;;;;;;;;5095837;28;20035;-67
2020/12/05 09:10:55;;;;;;;23.58;15.38;;;;;;;;;;5096047;28;20035;-65
2020/12/05 09:13:23;;;;;;;37.88;25.52;;;;;;;;;;5095748;28;20016;-65
2020/12/05 09:16:00;;;;;;;32.30;21.20;;;;;;;;;;5095830;28;20027;-65
2020/12/05 09:18:26;;;;;;;36.15;24.30;;;;;;;;;;5096510;28;20019;-64
2020/12/05 09:20:52;;;;;;;26.95;18.17;;;;;;;;;;5095565;28;20486;-66
2020/12/05 09:23:29;;;;;;;29.00;18.42;;;;;;;;;;5095304;28;20103;-65
2020/12/05 09:26:02;;;;;;;37.00;19.83;;;;;;;;;;5095800;28;20023;-66
2020/12/05 09:28:29;;;;;;;15.60;11.25;;;;;;;;;;5095142;28;20020;-65
2020/12/05 09:30:55;;;;;;;17.52;11.88;;;;;;;;;;5095706;28;20046;-64
2020/12/05 09:33:21;;;;;;;32.17;19.67;;;;;;;;;;5095593;28;20019;-67
2020/12/05 09:35:48;;;;;;;21.63;14.48;;;;;;;;;;5095417;28;20024;-65
2020/12/05 09:38:15;;;;;;;28.65;15.85;;;;;;;;;;5095812;28;20025;-63
2020/12/05 09:40:41;;;;;;;32.73;19.63;;;;;;;;;;5095036;28;20017;-63
2020/12/05 09:43:07;;;;;;;25.15;15.73;;;;;;;;;;5095328;28;20016;-64
2020/12/05 09:45:33;;;;;;;20.60;12.95;;;;;;;;;;5095626;28;20356;-66
2020/12/05 09:48:00;;;;;;;16.13;11.40;;;;;;;;;;5095053;28;20464;-65
2020/12/05 09:50:26;;;;;;;21.85;13.65;;;;;;;;;;5095119;28;20452;-63
2020/12/05 09:52:52;;;;;;;15.68;11.75;;;;;;;;;;5095233;28;20020;-63
2020/12/05 09:55:18;;;;;;;21.80;14.80;;;;;;;;;;5095472;28;20095;-64
2020/12/05 09:57:44;;;;;;;22.42;13.23;;;;;;;;;;5094689;28;20427;-64
2020/12/05 10:00:12;;;;;;;19.30;12.23;;;;;;;;;;5095126;28;20027;-64
2020/12/05 10:02:38;;;;;;;;;;;;;;;;;;5095467;28;20020;-64
2020/12/05 10:05:05;;;;;;;22.05;13.40;;;;;;;;;;5094437;28;19906;-66
2020/12/05 10:07:31;;;;;;;17.88;11.70;;;;;;;;;;5094615;28;20108;-65
2020/12/05 10:09:57;;;;;;;16.92;12.00;;;;;;;;;;5094663;28;20367;-64
2020/12/05 10:12:23;;;;;;;19.33;12.15;;;;;;;;;;5094596;28;20364;-64
2020/12/05 10:14:49;;;;;;;22.40;13.63;;;;;;;;;;5095341;28;20012;-66
2020/12/05 10:17:15;;;;;;;17.98;12.75;;;;;;;;;;5094203;28;20024;-66
2020/12/05 10:19:41;;;;;;;15.20;9.27;;;;;;;;;;5093466;28;20027;-63
2020/12/05 10:22:07;;;;;;;17.95;12.27;;;;;;;;;;5094395;28;20039;-64
2020/12/05 10:24:33;;;;;;;16.23;11.43;;;;;;;;;;5094346;28;20437;-69
2020/12/05 10:27:00;;;;;;;21.58;14.25;;;;;;;;;;5094268;28;20023;-64
2020/12/05 10:29:27;;;;;;;29.75;17.00;;;;;;;;;;5094507;28;20044;-64
2020/12/05 10:31:54;;;;;;;20.15;13.43;;;;;;;;;;5094259;28;20047;-62
2020/12/05 10:34:20;;;;;;;20.38;12.73;;;;;;;;;;5094546;28;20441;-64
2020/12/05 10:36:47;;;;;;;20.75;12.48;;;;;;;;;;5094246;28;20023;-66
2020/12/05 10:39:13;;;;;;;14.65;10.85;;;;;;;;;;5094299;28;20075;-65
2020/12/05 10:41:40;;;;;;;32.80;15.15;;;;;;;;;;5093811;28;20365;-65
2020/12/05 10:44:07;;;;;;;15.68;10.15;;;;;;;;;;5094364;28;20012;-64
2020/12/05 10:46:33;;;;;;;14.95;11.27;;;;;;;;;;5093807;28;20028;-66
2020/12/05 10:48:59;;;;;;;14.57;9.95;;;;;;;;;;5093992;28;20028;-65
2020/12/05 10:51:25;;;;;;;17.73;10.57;;;;;;;;;;5093968;28;20016;-65
2020/12/05 10:53:52;;;;;;;15.40;12.45;;;;;;;;;;5093972;28;20031;-66
2020/12/05 10:56:18;;;;;;;22.33;13.38;;;;;;;;;;5093913;28;20016;-65
2020/12/05 10:58:44;;;;;;;22.67;14.05;;;;;;;;;;5094171;28;20091;-65
2020/12/05 11:01:10;;;;;;;23.25;13.55;;;;;;;;;;5094057;28;20103;-64
2020/12/05 11:03:36;;;;;;;21.55;13.52;;;;;;;;;;5094068;28;20031;-66
2020/12/05 11:06:02;;;;;;;31.73;15.35;;;;;;;;;;5093954;28;20466;-66
2020/12/05 11:08:28;;;;;;;27.67;16.23;;;;;;;;;;5093971;28;20426;-67
2020/12/05 11:10:54;;;;;;;21.48;12.05;;;;;;;;;;5093988;28;20017;-66
2020/12/05 11:13:20;;;;;;;19.10;10.90;;;;;;;;;;5093646;28;20019;-70
2020/12/05 11:15:46;;;;;;;18.40;12.65;;;;;;;;;;5094239;28;20073;-67
2020/12/05 11:18:13;;;;;;;26.70;15.70;;;;;;;;;;5093969;28;20024;-66
2020/12/05 11:20:39;;;;;;;26.80;14.27;;;;;;;;;;5094103;28;20017;-66
2020/12/05 11:23:05;;;;;;;24.67;14.10;;;;;;;;;;5093524;28;20040;-67
2020/12/05 11:25:31;;;;;;;24.70;14.18;;;;;;;;;;5093525;28;20020;-66
2020/12/05 11:27:57;;;;;;;18.15;12.88;;;;;;;;;;5093534;28;20031;-67
2020/12/05 11:30:23;;;;;;;26.98;14.98;;;;;;;;;;5092518;28;20016;-67
2020/12/05 11:32:49;;;;;;;23.63;14.77;;;;;;;;;;5092519;28;20455;-67
2020/12/05 11:35:15;;;;;;;19.38;12.05;;;;;;;;;;5093430;28;20043;-67
2020/12/05 11:37:41;;;;;;;19.45;12.73;;;;;;;;;;5093450;28;20024;-66
2020/12/05 11:40:08;;;;;;;31.33;17.77;;;;;;;;;;5092137;28;20024;-66
2020/12/05 11:42:34;;;;;;;24.65;15.18;;;;;;;;;;5093125;28;20345;-65
2020/12/05 11:45:00;;;;;;;21.08;13.07;;;;;;;;;;5093694;28;20020;-64
2020/12/05 11:47:26;;;;;;;24.83;11.30;;;;;;;;;;5093613;28;20024;-64
2020/12/05 11:49:53;;;;;;;30.38;15.32;;;;;;;;;;5093569;28;20032;-65
2020/12/05 11:52:19;;;;;;;23.45;15.68;;;;;;;;;;5093892;28;20027;-67
2020/12/05 11:54:45;;;;;;;26.50;13.23;;;;;;;;;;5092308;28;20020;-64
2020/12/05 11:57:12;;;;;;;27.20;14.98;;;;;;;;;;5093293;28;20069;-64
2020/12/05 11:59:41;;;;;;;24.35;13.10;;;;;;;;;;5093551;28;20020;-64
2020/12/05 12:02:07;;;;;;;21.42;12.35;;;;;;;;;;5093215;28;20449;-65
2020/12/05 12:04:34;;;;;;;20.70;12.55;;;;;;;;;;5096472;28;20024;-64
2020/12/05 12:07:00;;;;;;;17.42;10.43;;;;;;;;;;5097518;28;20090;-66
2020/12/05 12:09:26;;;;;;;19.50;11.88;;;;;;;;;;5096952;28;20028;-64
2020/12/05 12:11:52;;;;;;;88.00;51.70;;;;;;;;;;5097487;28;20468;-65
2020/12/05 12:14:18;;;;;;;18.77;14.10;;;;;;;;;;5096894;28;20051;-65
2020/12/05 12:16:47;;;;;;;20.25;12.10;;;;;;;;;;5097080;28;20020;-65
2020/12/05 12:19:13;;;;;;;31.42;16.85;;;;;;;;;;5097390;28;20012;-65
2020/12/05 12:21:39;;;;;;;16.33;10.48;;;;;;;;;;5096973;28;20421;-65
2020/12/05 12:24:06;;;;;;;21.13;14.23;;;;;;;;;;5096640;28;20027;-65
2020/12/05 12:26:32;;;;;;;15.10;9.85;;;;;;;;;;5096847;28;20031;-64
2020/12/05 12:28:58;;;;;;;25.25;12.85;;;;;;;;;;5096630;28;20026;-67
2020/12/05 12:31:24;;;;;;;29.58;16.17;;;;;;;;;;5096687;28;20020;-66
2020/12/05 12:33:50;;;;;;;19.30;13.45;;;;;;;;;;5096779;28;20027;-65
2020/12/05 12:36:20;;;;;;;17.63;10.40;;;;;;;;;;5095515;28;20048;-65
2020/12/05 12:38:46;;;;;;;22.77;13.35;;;;;;;;;;5096102;28;20027;-68
2020/12/05 12:41:18;;;;;;;20.95;13.07;;;;;;;;;;5096330;28;20340;-67
2020/12/05 12:43:45;;;;;;;20.17;11.73;;;;;;;;;;5096294;28;20027;-66
2020/12/05 12:46:12;;;;;;;16.67;11.27;;;;;;;;;;5096176;28;20066;-66
2020/12/05 12:48:39;;;;;;;25.55;13.35;;;;;;;;;;5096535;28;20031;-65
2020/12/05 12:51:06;;;;;;;37.90;21.92;;;;;;;;;;5096452;28;20028;-66
2020/12/05 12:53:33;;;;;;;47.05;27.73;;;;;;;;;;5096105;28;20035;-67
2020/12/05 12:55:59;;;;;;;52.88;27.38;;;;;;;;;;5096362;28;20158;-66
2020/12/05 13:00:57;;;;;;;55.85;31.55;;;;;;;;;;5096334;28;20055;-66
2020/12/05 13:03:24;;;;;;;80.40;48.95;;;;;;;;;;5094966;28;20020;-66
2020/12/05 13:05:50;;;;;;;58.47;39.13;;;;;;;;;;5096004;28;20023;-67
2020/12/05 13:08:16;;;;;;;35.42;21.05;;;;;;;;;;5096101;28;20418;-68
2020/12/05 13:10:42;;;;;;;76.30;53.75;;;;;;;;;;5095762;28;20069;-66
2020/12/05 13:13:09;;;;;;;62.22;35.05;;;;;;;;;;5095742;28;20078;-67
2020/12/05 13:15:36;;;;;;;38.00;23.60;;;;;;;;;;5094601;28;20047;-66
2020/12/05 13:18:02;;;;;;;;;;;;;;;;;;5094821;28;20028;-65
2020/12/05 13:20:28;;;;;;;44.75;27.65;;;;;;;;;;5095546;28;19900;-66
2020/12/05 13:22:54;;;;;;;50.00;29.17;;;;;;;;;;5095762;28;20472;-67
2020/12/05 13:25:21;;;;;;;52.67;31.85;;;;;;;;;;5095432;28;20028;-66
2020/12/05 13:27:47;;;;;;;50.33;28.23;;;;;;;;;;5095445;28;20028;-68
2020/12/05 13:30:13;;;;;;;30.70;18.52;;;;;;;;;;5095565;28;20012;-67
2020/12/05 13:32:39;;;;;;;28.63;16.23;;;;;;;;;;5095656;28;20073;-66
2020/12/05 13:35:05;;;;;;;29.65;17.38;;;;;;;;;;5095071;28;20020;-67
2020/12/05 13:37:31;;;;;;;33.10;20.80;;;;;;;;;;5095500;28;20028;-67
2020/12/05 13:39:57;;;;;;;30.83;17.05;;;;;;;;;;5095828;28;20345;-67
2020/12/05 13:42:23;;;;;;;34.25;19.13;;;;;;;;;;5095165;28;20020;-67
2020/12/05 13:44:49;;;;;;;26.02;16.23;;;;;;;;;;5095166;28;20016;-65
2020/12/05 13:47:16;;;;;;;31.83;18.25;;;;;;;;;;5094662;28;20369;-66
2020/12/05 13:49:42;;;;;;;30.92;18.63;;;;;;;;;;5095333;28;20401;-65
2020/12/05 13:52:09;;;;;;;26.02;18.27;;;;;;;;;;5095307;28;20016;-66
2020/12/05 13:54:36;;;;;;;33.33;20.98;;;;;;;;;;5095135;28;20047;-66
2020/12/05 13:57:02;;;;;;;33.40;20.60;;;;;;;;;;5095360;28;20047;-65
2020/12/05 13:59:29;;;;;;;29.10;17.07;;;;;;;;;;5095187;28;20055;-65
2020/12/05 14:01:55;;;;;;;26.83;15.15;;;;;;;;;;5094479;28;20016;-65
2020/12/05 14:04:28;;;;;;;28.13;17.77;;;;;;;;;;5095625;28;20028;-66
2020/12/05 14:06:55;;;;;;;25.98;15.75;;;;;;;;;;5094039;28;20099;-66
2020/12/05 14:09:21;;;;;;;26.88;16.35;;;;;;;;;;5093498;28;20024;-67
2020/12/05 14:11:47;;;;;;;27.13;14.95;;;;;;;;;;5094526;28;20416;-66
2020/12/05 14:14:14;;;;;;;19.98;12.82;;;;;;;;;;5094187;28;20471;-64
2020/12/05 14:16:41;;;;;;;23.50;13.35;;;;;;;;;;5094268;28;20027;-66
2020/12/05 14:19:07;;;;;;;16.83;11.52;;;;;;;;;;5094674;28;20145;-67
2020/12/05 14:21:33;;;;;;;22.25;12.70;;;;;;;;;;5094223;28;20065;-65